<?xml version="1.0" encoding="UTF-8" standalone="no" ?>
<gpx xmlns="http://www.topografix.com/GPX/1/1" xmlns:xsi="http://www.w3.org/2001/XMLSchema-instance" xsi:schemaLocation="http://www.topografix.com/GPX/1/1 http://www.topografix.com/GPX/1/1/gpx.xsd" version="1.1" creator="VisuGPX - https://www.visugpx.com">
  <metadata>
    <name>cabane et pic d'Estibat -2021-01-24-133602</name>
    <desc><![CDATA[[b][i][url][img][/img][/url][/i][/b]]]></desc>
  </metadata>
  <trk>
    <name><![CDATA[MA-Rando-2021-01-24-133602]]></name>
    <trkseg>
      <trkpt lat="42.896" lon="1.46703">
        <ele>1124.0786132812</ele>
        <time>2021-01-24T08:15:46Z</time>
      </trkpt>
      <trkpt lat="42.8959" lon="1.46698">
        <ele>1123.1116943359</ele>
        <time>2021-01-24T08:15:54Z</time>
      </trkpt>
      <trkpt lat="42.89586" lon="1.46685">
        <ele>1121.9468994141</ele>
        <time>2021-01-24T08:16:02Z</time>
      </trkpt>
      <trkpt lat="42.89581" lon="1.46673">
        <ele>1127.1579589844</ele>
        <time>2021-01-24T08:16:12Z</time>
      </trkpt>
      <trkpt lat="42.89587" lon="1.46663">
        <ele>1127.4614257812</ele>
        <time>2021-01-24T08:18:51Z</time>
      </trkpt>
      <trkpt lat="42.89589" lon="1.46644">
        <ele>1130.4227294922</ele>
        <time>2021-01-24T08:19:03Z</time>
      </trkpt>
      <trkpt lat="42.89592" lon="1.46629">
        <ele>1129.1436767578</ele>
        <time>2021-01-24T08:19:15Z</time>
      </trkpt>
      <trkpt lat="42.89594" lon="1.46613">
        <ele>1126.4067382812</ele>
        <time>2021-01-24T08:19:27Z</time>
      </trkpt>
      <trkpt lat="42.89597" lon="1.46593">
        <ele>1123.9624023438</ele>
        <time>2021-01-24T08:19:39Z</time>
      </trkpt>
      <trkpt lat="42.89598" lon="1.46574">
        <ele>1121.0688476562</ele>
        <time>2021-01-24T08:19:51Z</time>
      </trkpt>
      <trkpt lat="42.89598" lon="1.46556">
        <ele>1116.6909179688</ele>
        <time>2021-01-24T08:20:03Z</time>
      </trkpt>
      <trkpt lat="42.89596" lon="1.46544">
        <ele>1113.3055419922</ele>
        <time>2021-01-24T08:20:12Z</time>
      </trkpt>
      <trkpt lat="42.89598" lon="1.46528">
        <ele>1115.5008544922</ele>
        <time>2021-01-24T08:20:24Z</time>
      </trkpt>
      <trkpt lat="42.89599" lon="1.46509">
        <ele>1114.8292236328</ele>
        <time>2021-01-24T08:20:36Z</time>
      </trkpt>
      <trkpt lat="42.89599" lon="1.46492">
        <ele>1112.2088623047</ele>
        <time>2021-01-24T08:20:48Z</time>
      </trkpt>
      <trkpt lat="42.89601" lon="1.46475">
        <ele>1109.3427734375</ele>
        <time>2021-01-24T08:21:00Z</time>
      </trkpt>
      <trkpt lat="42.89603" lon="1.46458">
        <ele>1105.9749755859</ele>
        <time>2021-01-24T08:21:12Z</time>
      </trkpt>
      <trkpt lat="42.89604" lon="1.46442">
        <ele>1099.2429199219</ele>
        <time>2021-01-24T08:21:24Z</time>
      </trkpt>
      <trkpt lat="42.89604" lon="1.46425">
        <ele>1098.9517822266</ele>
        <time>2021-01-24T08:21:36Z</time>
      </trkpt>
      <trkpt lat="42.89601" lon="1.46404">
        <ele>1105.1361083984</ele>
        <time>2021-01-24T08:21:48Z</time>
      </trkpt>
      <trkpt lat="42.89599" lon="1.46391">
        <ele>1108.896484375</ele>
        <time>2021-01-24T08:21:54Z</time>
      </trkpt>
      <trkpt lat="42.89597" lon="1.46373">
        <ele>1117.8316650391</ele>
        <time>2021-01-24T08:22:06Z</time>
      </trkpt>
      <trkpt lat="42.89594" lon="1.46359">
        <ele>1119.9730224609</ele>
        <time>2021-01-24T08:22:18Z</time>
      </trkpt>
      <trkpt lat="42.89591" lon="1.46346">
        <ele>1119.3308105469</ele>
        <time>2021-01-24T08:22:30Z</time>
      </trkpt>
      <trkpt lat="42.89588" lon="1.46333">
        <ele>1121.7810058594</ele>
        <time>2021-01-24T08:22:42Z</time>
      </trkpt>
      <trkpt lat="42.89582" lon="1.46321">
        <ele>1121.1492919922</ele>
        <time>2021-01-24T08:22:54Z</time>
      </trkpt>
      <trkpt lat="42.89578" lon="1.46308">
        <ele>1126.0098876953</ele>
        <time>2021-01-24T08:23:06Z</time>
      </trkpt>
      <trkpt lat="42.89576" lon="1.46294">
        <ele>1128.8601074219</ele>
        <time>2021-01-24T08:23:18Z</time>
      </trkpt>
      <trkpt lat="42.89574" lon="1.46277">
        <ele>1131.2313232422</ele>
        <time>2021-01-24T08:23:33Z</time>
      </trkpt>
      <trkpt lat="42.89571" lon="1.46264">
        <ele>1134.9449462891</ele>
        <time>2021-01-24T08:23:45Z</time>
      </trkpt>
      <trkpt lat="42.89568" lon="1.46247">
        <ele>1142.5123291016</ele>
        <time>2021-01-24T08:24:00Z</time>
      </trkpt>
      <trkpt lat="42.89564" lon="1.46235">
        <ele>1146.6329345703</ele>
        <time>2021-01-24T08:24:12Z</time>
      </trkpt>
      <trkpt lat="42.89557" lon="1.46226">
        <ele>1147.8680419922</ele>
        <time>2021-01-24T08:24:24Z</time>
      </trkpt>
      <trkpt lat="42.89548" lon="1.46233">
        <ele>1148.9108886719</ele>
        <time>2021-01-24T08:24:48Z</time>
      </trkpt>
      <trkpt lat="42.89544" lon="1.46245">
        <ele>1149.2314453125</ele>
        <time>2021-01-24T08:25:00Z</time>
      </trkpt>
      <trkpt lat="42.89542" lon="1.46259">
        <ele>1154.0952148438</ele>
        <time>2021-01-24T08:25:15Z</time>
      </trkpt>
      <trkpt lat="42.89535" lon="1.46271">
        <ele>1152.3325195312</ele>
        <time>2021-01-24T08:25:30Z</time>
      </trkpt>
      <trkpt lat="42.89527" lon="1.46282">
        <ele>1151.7788085938</ele>
        <time>2021-01-24T08:25:45Z</time>
      </trkpt>
      <trkpt lat="42.8952" lon="1.46295">
        <ele>1157.4512939453</ele>
        <time>2021-01-24T08:26:03Z</time>
      </trkpt>
      <trkpt lat="42.89512" lon="1.46306">
        <ele>1161.7019042969</ele>
        <time>2021-01-24T08:26:24Z</time>
      </trkpt>
      <trkpt lat="42.89502" lon="1.46315">
        <ele>1165.4089355469</ele>
        <time>2021-01-24T08:26:36Z</time>
      </trkpt>
      <trkpt lat="42.89493" lon="1.46324">
        <ele>1168.8167724609</ele>
        <time>2021-01-24T08:26:51Z</time>
      </trkpt>
      <trkpt lat="42.89482" lon="1.4633">
        <ele>1169.0908203125</ele>
        <time>2021-01-24T08:27:03Z</time>
      </trkpt>
      <trkpt lat="42.89472" lon="1.46334">
        <ele>1172.1652832031</ele>
        <time>2021-01-24T08:27:15Z</time>
      </trkpt>
      <trkpt lat="42.89463" lon="1.4634">
        <ele>1173.4963378906</ele>
        <time>2021-01-24T08:27:27Z</time>
      </trkpt>
      <trkpt lat="42.89454" lon="1.46346">
        <ele>1174.4766845703</ele>
        <time>2021-01-24T08:27:39Z</time>
      </trkpt>
      <trkpt lat="42.89445" lon="1.46356">
        <ele>1176.3651123047</ele>
        <time>2021-01-24T08:27:54Z</time>
      </trkpt>
      <trkpt lat="42.89436" lon="1.46369">
        <ele>1178.7396240234</ele>
        <time>2021-01-24T08:28:12Z</time>
      </trkpt>
      <trkpt lat="42.89426" lon="1.4638">
        <ele>1180.6508789062</ele>
        <time>2021-01-24T08:28:27Z</time>
      </trkpt>
      <trkpt lat="42.89418" lon="1.46392">
        <ele>1184.6968994141</ele>
        <time>2021-01-24T08:28:45Z</time>
      </trkpt>
      <trkpt lat="42.8941" lon="1.46405">
        <ele>1187.2208251953</ele>
        <time>2021-01-24T08:29:03Z</time>
      </trkpt>
      <trkpt lat="42.89403" lon="1.46414">
        <ele>1186.6984863281</ele>
        <time>2021-01-24T08:29:15Z</time>
      </trkpt>
      <trkpt lat="42.89397" lon="1.46423">
        <ele>1185.2160644531</ele>
        <time>2021-01-24T08:29:27Z</time>
      </trkpt>
      <trkpt lat="42.89388" lon="1.46434">
        <ele>1188.0076904297</ele>
        <time>2021-01-24T08:29:45Z</time>
      </trkpt>
      <trkpt lat="42.8938" lon="1.46448">
        <ele>1192.0874023438</ele>
        <time>2021-01-24T08:30:09Z</time>
      </trkpt>
      <trkpt lat="42.89376" lon="1.46463">
        <ele>1198.0135498047</ele>
        <time>2021-01-24T08:30:24Z</time>
      </trkpt>
      <trkpt lat="42.89368" lon="1.46476">
        <ele>1202.8367919922</ele>
        <time>2021-01-24T08:30:42Z</time>
      </trkpt>
      <trkpt lat="42.89361" lon="1.4649">
        <ele>1207.0902099609</ele>
        <time>2021-01-24T08:31:00Z</time>
      </trkpt>
      <trkpt lat="42.89353" lon="1.46499">
        <ele>1210.4155273438</ele>
        <time>2021-01-24T08:31:18Z</time>
      </trkpt>
      <trkpt lat="42.8934" lon="1.46505">
        <ele>1216.4934082031</ele>
        <time>2021-01-24T08:31:36Z</time>
      </trkpt>
      <trkpt lat="42.89343" lon="1.46492">
        <ele>1218.0609130859</ele>
        <time>2021-01-24T08:36:33Z</time>
      </trkpt>
      <trkpt lat="42.89348" lon="1.46479">
        <ele>1213.1087646484</ele>
        <time>2021-01-24T08:36:51Z</time>
      </trkpt>
      <trkpt lat="42.89353" lon="1.46465">
        <ele>1214.2205810547</ele>
        <time>2021-01-24T08:37:06Z</time>
      </trkpt>
      <trkpt lat="42.89351" lon="1.46448">
        <ele>1212.9318847656</ele>
        <time>2021-01-24T08:37:24Z</time>
      </trkpt>
      <trkpt lat="42.89352" lon="1.46434">
        <ele>1210.8564453125</ele>
        <time>2021-01-24T08:37:45Z</time>
      </trkpt>
      <trkpt lat="42.8935" lon="1.46419">
        <ele>1212.2073974609</ele>
        <time>2021-01-24T08:38:09Z</time>
      </trkpt>
      <trkpt lat="42.89345" lon="1.46408">
        <ele>1215.6879882812</ele>
        <time>2021-01-24T08:38:21Z</time>
      </trkpt>
      <trkpt lat="42.89342" lon="1.46395">
        <ele>1219.7731933594</ele>
        <time>2021-01-24T08:38:33Z</time>
      </trkpt>
      <trkpt lat="42.89339" lon="1.46378">
        <ele>1223.2801513672</ele>
        <time>2021-01-24T08:38:51Z</time>
      </trkpt>
      <trkpt lat="42.89338" lon="1.46363">
        <ele>1222.4221191406</ele>
        <time>2021-01-24T08:39:06Z</time>
      </trkpt>
      <trkpt lat="42.89337" lon="1.46349">
        <ele>1226.3934326172</ele>
        <time>2021-01-24T08:39:18Z</time>
      </trkpt>
      <trkpt lat="42.89336" lon="1.46335">
        <ele>1229.4899902344</ele>
        <time>2021-01-24T08:39:33Z</time>
      </trkpt>
      <trkpt lat="42.89333" lon="1.4632">
        <ele>1230.8682861328</ele>
        <time>2021-01-24T08:39:51Z</time>
      </trkpt>
      <trkpt lat="42.8933" lon="1.46308">
        <ele>1237.4383544922</ele>
        <time>2021-01-24T08:40:27Z</time>
      </trkpt>
      <trkpt lat="42.89326" lon="1.46295">
        <ele>1243.2934570312</ele>
        <time>2021-01-24T08:40:48Z</time>
      </trkpt>
      <trkpt lat="42.89323" lon="1.4628">
        <ele>1246.3468017578</ele>
        <time>2021-01-24T08:41:06Z</time>
      </trkpt>
      <trkpt lat="42.89319" lon="1.46267">
        <ele>1244.0771484375</ele>
        <time>2021-01-24T08:41:27Z</time>
      </trkpt>
      <trkpt lat="42.89315" lon="1.46254">
        <ele>1248.2069091797</ele>
        <time>2021-01-24T08:41:48Z</time>
      </trkpt>
      <trkpt lat="42.89312" lon="1.46239">
        <ele>1250.0743408203</ele>
        <time>2021-01-24T08:42:09Z</time>
      </trkpt>
      <trkpt lat="42.89312" lon="1.46224">
        <ele>1253.1782226562</ele>
        <time>2021-01-24T08:43:09Z</time>
      </trkpt>
      <trkpt lat="42.8931" lon="1.46209">
        <ele>1249.5119628906</ele>
        <time>2021-01-24T08:43:48Z</time>
      </trkpt>
      <trkpt lat="42.89304" lon="1.46196">
        <ele>1252.265625</ele>
        <time>2021-01-24T08:44:09Z</time>
      </trkpt>
      <trkpt lat="42.89299" lon="1.46183">
        <ele>1252.4066162109</ele>
        <time>2021-01-24T08:44:24Z</time>
      </trkpt>
      <trkpt lat="42.89295" lon="1.46169">
        <ele>1253.2976074219</ele>
        <time>2021-01-24T08:44:42Z</time>
      </trkpt>
      <trkpt lat="42.89291" lon="1.46156">
        <ele>1251.6252441406</ele>
        <time>2021-01-24T08:45:00Z</time>
      </trkpt>
      <trkpt lat="42.89287" lon="1.46144">
        <ele>1249.4554443359</ele>
        <time>2021-01-24T08:45:12Z</time>
      </trkpt>
      <trkpt lat="42.89284" lon="1.46131">
        <ele>1251.7568359375</ele>
        <time>2021-01-24T08:45:27Z</time>
      </trkpt>
      <trkpt lat="42.89281" lon="1.46117">
        <ele>1254.6094970703</ele>
        <time>2021-01-24T08:45:45Z</time>
      </trkpt>
      <trkpt lat="42.89279" lon="1.46104">
        <ele>1256.1566162109</ele>
        <time>2021-01-24T08:46:03Z</time>
      </trkpt>
      <trkpt lat="42.89277" lon="1.46088">
        <ele>1260.4134521484</ele>
        <time>2021-01-24T08:46:21Z</time>
      </trkpt>
      <trkpt lat="42.89275" lon="1.46075">
        <ele>1265.9173583984</ele>
        <time>2021-01-24T08:46:39Z</time>
      </trkpt>
      <trkpt lat="42.89272" lon="1.46061">
        <ele>1268.6019287109</ele>
        <time>2021-01-24T08:47:03Z</time>
      </trkpt>
      <trkpt lat="42.89264" lon="1.46072">
        <ele>1277.6787109375</ele>
        <time>2021-01-24T08:51:32Z</time>
      </trkpt>
      <trkpt lat="42.89257" lon="1.46082">
        <ele>1275.4348144531</ele>
        <time>2021-01-24T08:51:47Z</time>
      </trkpt>
      <trkpt lat="42.89246" lon="1.46083">
        <ele>1274.3852539062</ele>
        <time>2021-01-24T08:52:02Z</time>
      </trkpt>
      <trkpt lat="42.89235" lon="1.4608">
        <ele>1268.8109130859</ele>
        <time>2021-01-24T08:52:23Z</time>
      </trkpt>
      <trkpt lat="42.89224" lon="1.46076">
        <ele>1265.5541992188</ele>
        <time>2021-01-24T08:52:41Z</time>
      </trkpt>
      <trkpt lat="42.89212" lon="1.46073">
        <ele>1264.0572509766</ele>
        <time>2021-01-24T08:52:56Z</time>
      </trkpt>
      <trkpt lat="42.89203" lon="1.46066">
        <ele>1266.8153076172</ele>
        <time>2021-01-24T08:53:08Z</time>
      </trkpt>
      <trkpt lat="42.89193" lon="1.46058">
        <ele>1268.5729980469</ele>
        <time>2021-01-24T08:53:23Z</time>
      </trkpt>
      <trkpt lat="42.89184" lon="1.46055">
        <ele>1260.4031982422</ele>
        <time>2021-01-24T08:53:56Z</time>
      </trkpt>
      <trkpt lat="42.89172" lon="1.46055">
        <ele>1257.8111572266</ele>
        <time>2021-01-24T08:54:11Z</time>
      </trkpt>
      <trkpt lat="42.89161" lon="1.46058">
        <ele>1256.9493408203</ele>
        <time>2021-01-24T08:54:26Z</time>
      </trkpt>
      <trkpt lat="42.89149" lon="1.46063">
        <ele>1252.9879150391</ele>
        <time>2021-01-24T08:54:44Z</time>
      </trkpt>
      <trkpt lat="42.89141" lon="1.46072">
        <ele>1252.595703125</ele>
        <time>2021-01-24T08:54:59Z</time>
      </trkpt>
      <trkpt lat="42.89139" lon="1.46084">
        <ele>1251.5063476562</ele>
        <time>2021-01-24T08:55:11Z</time>
      </trkpt>
      <trkpt lat="42.89134" lon="1.46097">
        <ele>1252.9896240234</ele>
        <time>2021-01-24T08:55:26Z</time>
      </trkpt>
      <trkpt lat="42.89126" lon="1.46111">
        <ele>1253.5837402344</ele>
        <time>2021-01-24T08:56:11Z</time>
      </trkpt>
      <trkpt lat="42.89114" lon="1.46115">
        <ele>1250.0369873047</ele>
        <time>2021-01-24T08:56:38Z</time>
      </trkpt>
      <trkpt lat="42.89101" lon="1.46115">
        <ele>1256.6516113281</ele>
        <time>2021-01-24T08:56:53Z</time>
      </trkpt>
      <trkpt lat="42.89093" lon="1.46103">
        <ele>1255.6967773438</ele>
        <time>2021-01-24T08:58:35Z</time>
      </trkpt>
      <trkpt lat="42.89085" lon="1.46093">
        <ele>1260.1822509766</ele>
        <time>2021-01-24T08:58:50Z</time>
      </trkpt>
      <trkpt lat="42.89076" lon="1.46085">
        <ele>1261.8697509766</ele>
        <time>2021-01-24T08:59:05Z</time>
      </trkpt>
      <trkpt lat="42.89065" lon="1.46082">
        <ele>1264.6726074219</ele>
        <time>2021-01-24T08:59:29Z</time>
      </trkpt>
      <trkpt lat="42.89058" lon="1.46091">
        <ele>1266.5166015625</ele>
        <time>2021-01-24T08:59:47Z</time>
      </trkpt>
      <trkpt lat="42.89047" lon="1.46087">
        <ele>1267.9569091797</ele>
        <time>2021-01-24T09:00:08Z</time>
      </trkpt>
      <trkpt lat="42.89039" lon="1.46082">
        <ele>1274.3715820312</ele>
        <time>2021-01-24T09:00:56Z</time>
      </trkpt>
      <trkpt lat="42.89034" lon="1.4607">
        <ele>1277.751953125</ele>
        <time>2021-01-24T09:01:29Z</time>
      </trkpt>
      <trkpt lat="42.89023" lon="1.46068">
        <ele>1281.9792480469</ele>
        <time>2021-01-24T09:01:56Z</time>
      </trkpt>
      <trkpt lat="42.89017" lon="1.46056">
        <ele>1285.2261962891</ele>
        <time>2021-01-24T09:02:17Z</time>
      </trkpt>
      <trkpt lat="42.89009" lon="1.4605">
        <ele>1288.1986083984</ele>
        <time>2021-01-24T09:02:35Z</time>
      </trkpt>
      <trkpt lat="42.88999" lon="1.46046">
        <ele>1289.5360107422</ele>
        <time>2021-01-24T09:02:56Z</time>
      </trkpt>
      <trkpt lat="42.88989" lon="1.46039">
        <ele>1292.81640625</ele>
        <time>2021-01-24T09:03:14Z</time>
      </trkpt>
      <trkpt lat="42.88989" lon="1.46022">
        <ele>1292.7244873047</ele>
        <time>2021-01-24T09:03:41Z</time>
      </trkpt>
      <trkpt lat="42.88979" lon="1.46014">
        <ele>1292.4035644531</ele>
        <time>2021-01-24T09:04:11Z</time>
      </trkpt>
      <trkpt lat="42.88968" lon="1.4601">
        <ele>1294.556640625</ele>
        <time>2021-01-24T09:04:32Z</time>
      </trkpt>
      <trkpt lat="42.88959" lon="1.46004">
        <ele>1299.7677001953</ele>
        <time>2021-01-24T09:04:50Z</time>
      </trkpt>
      <trkpt lat="42.88951" lon="1.45997">
        <ele>1301.8269042969</ele>
        <time>2021-01-24T09:05:08Z</time>
      </trkpt>
      <trkpt lat="42.8894" lon="1.4599">
        <ele>1302.0490722656</ele>
        <time>2021-01-24T09:05:32Z</time>
      </trkpt>
      <trkpt lat="42.88929" lon="1.4599">
        <ele>1299.9927978516</ele>
        <time>2021-01-24T09:05:53Z</time>
      </trkpt>
      <trkpt lat="42.88918" lon="1.4599">
        <ele>1302.8253173828</ele>
        <time>2021-01-24T09:06:11Z</time>
      </trkpt>
      <trkpt lat="42.88907" lon="1.45992">
        <ele>1306.8203125</ele>
        <time>2021-01-24T09:06:29Z</time>
      </trkpt>
      <trkpt lat="42.88897" lon="1.45985">
        <ele>1308.1926269531</ele>
        <time>2021-01-24T09:06:50Z</time>
      </trkpt>
      <trkpt lat="42.88892" lon="1.45972">
        <ele>1315.5629882812</ele>
        <time>2021-01-24T09:07:14Z</time>
      </trkpt>
      <trkpt lat="42.88891" lon="1.4596">
        <ele>1317.4191894531</ele>
        <time>2021-01-24T09:07:35Z</time>
      </trkpt>
      <trkpt lat="42.88889" lon="1.45947">
        <ele>1322.83203125</ele>
        <time>2021-01-24T09:07:56Z</time>
      </trkpt>
      <trkpt lat="42.88887" lon="1.45935">
        <ele>1325.7835693359</ele>
        <time>2021-01-24T09:08:14Z</time>
      </trkpt>
      <trkpt lat="42.88881" lon="1.45923">
        <ele>1331.7542724609</ele>
        <time>2021-01-24T09:08:38Z</time>
      </trkpt>
      <trkpt lat="42.88869" lon="1.45925">
        <ele>1336.3002929688</ele>
        <time>2021-01-24T09:09:05Z</time>
      </trkpt>
      <trkpt lat="42.88859" lon="1.45926">
        <ele>1336.2030029297</ele>
        <time>2021-01-24T09:09:32Z</time>
      </trkpt>
      <trkpt lat="42.88857" lon="1.45941">
        <ele>1331.9016113281</ele>
        <time>2021-01-24T09:10:11Z</time>
      </trkpt>
      <trkpt lat="42.88843" lon="1.45945">
        <ele>1327.5454101562</ele>
        <time>2021-01-24T09:24:20Z</time>
      </trkpt>
      <trkpt lat="42.88834" lon="1.45948">
        <ele>1324.8841552734</ele>
        <time>2021-01-24T09:24:35Z</time>
      </trkpt>
      <trkpt lat="42.88822" lon="1.45953">
        <ele>1316.7430419922</ele>
        <time>2021-01-24T09:25:17Z</time>
      </trkpt>
      <trkpt lat="42.8881" lon="1.45953">
        <ele>1308.9837646484</ele>
        <time>2021-01-24T09:25:32Z</time>
      </trkpt>
      <trkpt lat="42.88798" lon="1.45956">
        <ele>1312.8514404297</ele>
        <time>2021-01-24T09:25:44Z</time>
      </trkpt>
      <trkpt lat="42.88785" lon="1.45959">
        <ele>1314.9573974609</ele>
        <time>2021-01-24T09:25:56Z</time>
      </trkpt>
      <trkpt lat="42.88775" lon="1.45962">
        <ele>1318.5073242188</ele>
        <time>2021-01-24T09:26:08Z</time>
      </trkpt>
      <trkpt lat="42.88761" lon="1.45966">
        <ele>1322.716796875</ele>
        <time>2021-01-24T09:26:20Z</time>
      </trkpt>
      <trkpt lat="42.88749" lon="1.45967">
        <ele>1323.4869384766</ele>
        <time>2021-01-24T09:26:32Z</time>
      </trkpt>
      <trkpt lat="42.88739" lon="1.45967">
        <ele>1325.2469482422</ele>
        <time>2021-01-24T09:26:44Z</time>
      </trkpt>
      <trkpt lat="42.88728" lon="1.45966">
        <ele>1323.7099609375</ele>
        <time>2021-01-24T09:26:56Z</time>
      </trkpt>
      <trkpt lat="42.88716" lon="1.45969">
        <ele>1324.2395019531</ele>
        <time>2021-01-24T09:27:14Z</time>
      </trkpt>
      <trkpt lat="42.88706" lon="1.4597">
        <ele>1326.9527587891</ele>
        <time>2021-01-24T09:27:26Z</time>
      </trkpt>
      <trkpt lat="42.88696" lon="1.45967">
        <ele>1326.5843505859</ele>
        <time>2021-01-24T09:27:41Z</time>
      </trkpt>
      <trkpt lat="42.88685" lon="1.45968">
        <ele>1325.3569335938</ele>
        <time>2021-01-24T09:27:56Z</time>
      </trkpt>
      <trkpt lat="42.88677" lon="1.45973">
        <ele>1324.1065673828</ele>
        <time>2021-01-24T09:28:08Z</time>
      </trkpt>
      <trkpt lat="42.88667" lon="1.45979">
        <ele>1327.4096679688</ele>
        <time>2021-01-24T09:28:20Z</time>
      </trkpt>
      <trkpt lat="42.88656" lon="1.45984">
        <ele>1332.8013916016</ele>
        <time>2021-01-24T09:28:38Z</time>
      </trkpt>
      <trkpt lat="42.88645" lon="1.45989">
        <ele>1337.2078857422</ele>
        <time>2021-01-24T09:28:56Z</time>
      </trkpt>
      <trkpt lat="42.88636" lon="1.45995">
        <ele>1334.3511962891</ele>
        <time>2021-01-24T09:29:14Z</time>
      </trkpt>
      <trkpt lat="42.88627" lon="1.46004">
        <ele>1338.8768310547</ele>
        <time>2021-01-24T09:29:32Z</time>
      </trkpt>
      <trkpt lat="42.88619" lon="1.46015">
        <ele>1346.7432861328</ele>
        <time>2021-01-24T09:29:47Z</time>
      </trkpt>
      <trkpt lat="42.88613" lon="1.46027">
        <ele>1347.5257568359</ele>
        <time>2021-01-24T09:30:00Z</time>
      </trkpt>
      <trkpt lat="42.88603" lon="1.46036">
        <ele>1354.9431152344</ele>
        <time>2021-01-24T09:30:27Z</time>
      </trkpt>
      <trkpt lat="42.88594" lon="1.46033">
        <ele>1360.1215820312</ele>
        <time>2021-01-24T09:30:40Z</time>
      </trkpt>
      <trkpt lat="42.88585" lon="1.46027">
        <ele>1358.6116943359</ele>
        <time>2021-01-24T09:30:51Z</time>
      </trkpt>
      <trkpt lat="42.88572" lon="1.46019">
        <ele>1357.5050048828</ele>
        <time>2021-01-24T09:31:25Z</time>
      </trkpt>
      <trkpt lat="42.88564" lon="1.46017">
        <ele>1358.9720458984</ele>
        <time>2021-01-24T09:31:44Z</time>
      </trkpt>
      <trkpt lat="42.88554" lon="1.46019">
        <ele>1362.2456054688</ele>
        <time>2021-01-24T09:32:06Z</time>
      </trkpt>
      <trkpt lat="42.88546" lon="1.46012">
        <ele>1363.7290039062</ele>
        <time>2021-01-24T09:32:40Z</time>
      </trkpt>
      <trkpt lat="42.88538" lon="1.46006">
        <ele>1364.7158203125</ele>
        <time>2021-01-24T09:32:55Z</time>
      </trkpt>
      <trkpt lat="42.88525" lon="1.46005">
        <ele>1367.5241699219</ele>
        <time>2021-01-24T09:33:22Z</time>
      </trkpt>
      <trkpt lat="42.88519" lon="1.45996">
        <ele>1367.4418945312</ele>
        <time>2021-01-24T09:33:34Z</time>
      </trkpt>
      <trkpt lat="42.88511" lon="1.45989">
        <ele>1372.0240478516</ele>
        <time>2021-01-24T09:33:59Z</time>
      </trkpt>
      <trkpt lat="42.88497" lon="1.45987">
        <ele>1377.2813720703</ele>
        <time>2021-01-24T09:34:30Z</time>
      </trkpt>
      <trkpt lat="42.88488" lon="1.4599">
        <ele>1379.9853515625</ele>
        <time>2021-01-24T09:34:47Z</time>
      </trkpt>
      <trkpt lat="42.88479" lon="1.45992">
        <ele>1383.2493896484</ele>
        <time>2021-01-24T09:37:47Z</time>
      </trkpt>
      <trkpt lat="42.88469" lon="1.45989">
        <ele>1386.3046875</ele>
        <time>2021-01-24T09:38:02Z</time>
      </trkpt>
      <trkpt lat="42.88462" lon="1.45981">
        <ele>1386.8605957031</ele>
        <time>2021-01-24T09:38:19Z</time>
      </trkpt>
      <trkpt lat="42.88453" lon="1.45975">
        <ele>1387.9948730469</ele>
        <time>2021-01-24T09:38:34Z</time>
      </trkpt>
      <trkpt lat="42.88445" lon="1.4597">
        <ele>1391.0502929688</ele>
        <time>2021-01-24T09:38:48Z</time>
      </trkpt>
      <trkpt lat="42.88436" lon="1.45963">
        <ele>1392.3978271484</ele>
        <time>2021-01-24T09:39:02Z</time>
      </trkpt>
      <trkpt lat="42.88428" lon="1.45957">
        <ele>1390.8686523438</ele>
        <time>2021-01-24T09:39:17Z</time>
      </trkpt>
      <trkpt lat="42.88419" lon="1.45951">
        <ele>1395.5834960938</ele>
        <time>2021-01-24T09:39:33Z</time>
      </trkpt>
      <trkpt lat="42.8841" lon="1.45946">
        <ele>1398.7358398438</ele>
        <time>2021-01-24T09:39:46Z</time>
      </trkpt>
      <trkpt lat="42.88401" lon="1.4594">
        <ele>1401.9163818359</ele>
        <time>2021-01-24T09:40:02Z</time>
      </trkpt>
      <trkpt lat="42.88393" lon="1.45933">
        <ele>1405.6590576172</ele>
        <time>2021-01-24T09:40:21Z</time>
      </trkpt>
      <trkpt lat="42.88384" lon="1.45931">
        <ele>1412.056640625</ele>
        <time>2021-01-24T09:40:33Z</time>
      </trkpt>
      <trkpt lat="42.88376" lon="1.45926">
        <ele>1417.3195800781</ele>
        <time>2021-01-24T09:40:52Z</time>
      </trkpt>
      <trkpt lat="42.88367" lon="1.45928">
        <ele>1419.3843994141</ele>
        <time>2021-01-24T09:41:08Z</time>
      </trkpt>
      <trkpt lat="42.88357" lon="1.45927">
        <ele>1419.2625732422</ele>
        <time>2021-01-24T09:41:22Z</time>
      </trkpt>
      <trkpt lat="42.88348" lon="1.45933">
        <ele>1418.6723632812</ele>
        <time>2021-01-24T09:41:46Z</time>
      </trkpt>
      <trkpt lat="42.8834" lon="1.45943">
        <ele>1423.419921875</ele>
        <time>2021-01-24T09:42:01Z</time>
      </trkpt>
      <trkpt lat="42.88333" lon="1.4595">
        <ele>1426.6921386719</ele>
        <time>2021-01-24T09:42:24Z</time>
      </trkpt>
      <trkpt lat="42.88328" lon="1.45962">
        <ele>1426.3175048828</ele>
        <time>2021-01-24T09:42:50Z</time>
      </trkpt>
      <trkpt lat="42.8832" lon="1.45968">
        <ele>1427.6605224609</ele>
        <time>2021-01-24T09:43:03Z</time>
      </trkpt>
      <trkpt lat="42.8831" lon="1.45971">
        <ele>1433.3602294922</ele>
        <time>2021-01-24T09:43:21Z</time>
      </trkpt>
      <trkpt lat="42.88301" lon="1.45973">
        <ele>1433.2149658203</ele>
        <time>2021-01-24T09:43:33Z</time>
      </trkpt>
      <trkpt lat="42.88291" lon="1.45972">
        <ele>1433.4245605469</ele>
        <time>2021-01-24T09:43:50Z</time>
      </trkpt>
      <trkpt lat="42.88282" lon="1.4597">
        <ele>1434.7155761719</ele>
        <time>2021-01-24T09:44:06Z</time>
      </trkpt>
      <trkpt lat="42.88273" lon="1.45973">
        <ele>1439.8020019531</ele>
        <time>2021-01-24T09:44:31Z</time>
      </trkpt>
      <trkpt lat="42.8826" lon="1.45971">
        <ele>1440.3552246094</ele>
        <time>2021-01-24T09:47:09Z</time>
      </trkpt>
      <trkpt lat="42.88248" lon="1.45964">
        <ele>1444.8443603516</ele>
        <time>2021-01-24T09:47:58Z</time>
      </trkpt>
      <trkpt lat="42.88246" lon="1.45952">
        <ele>1445.3061523438</ele>
        <time>2021-01-24T09:48:14Z</time>
      </trkpt>
      <trkpt lat="42.88243" lon="1.45939">
        <ele>1450.7336425781</ele>
        <time>2021-01-24T09:48:44Z</time>
      </trkpt>
      <trkpt lat="42.88242" lon="1.45926">
        <ele>1450.1813964844</ele>
        <time>2021-01-24T09:49:02Z</time>
      </trkpt>
      <trkpt lat="42.88239" lon="1.45915">
        <ele>1451.7944335938</ele>
        <time>2021-01-24T09:49:21Z</time>
      </trkpt>
      <trkpt lat="42.88234" lon="1.45903">
        <ele>1454.0765380859</ele>
        <time>2021-01-24T09:49:35Z</time>
      </trkpt>
      <trkpt lat="42.88229" lon="1.45913">
        <ele>1467.2733154297</ele>
        <time>2021-01-24T09:50:02Z</time>
      </trkpt>
      <trkpt lat="42.88221" lon="1.45919">
        <ele>1470.2462158203</ele>
        <time>2021-01-24T09:50:18Z</time>
      </trkpt>
      <trkpt lat="42.88212" lon="1.45926">
        <ele>1471.9243164062</ele>
        <time>2021-01-24T09:50:34Z</time>
      </trkpt>
      <trkpt lat="42.88203" lon="1.45932">
        <ele>1472.3685302734</ele>
        <time>2021-01-24T09:50:49Z</time>
      </trkpt>
      <trkpt lat="42.88196" lon="1.45939">
        <ele>1474.9031982422</ele>
        <time>2021-01-24T09:51:08Z</time>
      </trkpt>
      <trkpt lat="42.88189" lon="1.45949">
        <ele>1480.6876220703</ele>
        <time>2021-01-24T09:51:27Z</time>
      </trkpt>
      <trkpt lat="42.88179" lon="1.45958">
        <ele>1484.0280761719</ele>
        <time>2021-01-24T09:52:03Z</time>
      </trkpt>
      <trkpt lat="42.8817" lon="1.45955">
        <ele>1482.2921142578</ele>
        <time>2021-01-24T09:52:19Z</time>
      </trkpt>
      <trkpt lat="42.88163" lon="1.45946">
        <ele>1487.3638916016</ele>
        <time>2021-01-24T09:54:26Z</time>
      </trkpt>
      <trkpt lat="42.88158" lon="1.45935">
        <ele>1490.2799072266</ele>
        <time>2021-01-24T09:54:45Z</time>
      </trkpt>
      <trkpt lat="42.8815" lon="1.45941">
        <ele>1489.9578857422</ele>
        <time>2021-01-24T09:55:13Z</time>
      </trkpt>
      <trkpt lat="42.88146" lon="1.4593">
        <ele>1491.6649169922</ele>
        <time>2021-01-24T09:55:39Z</time>
      </trkpt>
      <trkpt lat="42.88145" lon="1.45916">
        <ele>1492.0610351562</ele>
        <time>2021-01-24T09:56:16Z</time>
      </trkpt>
      <trkpt lat="42.88137" lon="1.45907">
        <ele>1501.2998046875</ele>
        <time>2021-01-24T09:56:49Z</time>
      </trkpt>
      <trkpt lat="42.88128" lon="1.45912">
        <ele>1502.4990234375</ele>
        <time>2021-01-24T09:57:04Z</time>
      </trkpt>
      <trkpt lat="42.88126" lon="1.45925">
        <ele>1506.0805664062</ele>
        <time>2021-01-24T09:57:16Z</time>
      </trkpt>
      <trkpt lat="42.88127" lon="1.45938">
        <ele>1508.373046875</ele>
        <time>2021-01-24T09:57:43Z</time>
      </trkpt>
      <trkpt lat="42.88128" lon="1.45952">
        <ele>1508.7365722656</ele>
        <time>2021-01-24T09:57:56Z</time>
      </trkpt>
      <trkpt lat="42.8813" lon="1.45964">
        <ele>1511.8745117188</ele>
        <time>2021-01-24T09:58:06Z</time>
      </trkpt>
      <trkpt lat="42.88131" lon="1.45982">
        <ele>1513.2297363281</ele>
        <time>2021-01-24T09:58:25Z</time>
      </trkpt>
      <trkpt lat="42.88134" lon="1.45993">
        <ele>1513.3359375</ele>
        <time>2021-01-24T09:58:35Z</time>
      </trkpt>
      <trkpt lat="42.8814" lon="1.46004">
        <ele>1514.2084960938</ele>
        <time>2021-01-24T09:58:47Z</time>
      </trkpt>
      <trkpt lat="42.88142" lon="1.46017">
        <ele>1517.5114746094</ele>
        <time>2021-01-24T09:59:03Z</time>
      </trkpt>
      <trkpt lat="42.88144" lon="1.46032">
        <ele>1515.6008300781</ele>
        <time>2021-01-24T10:02:43Z</time>
      </trkpt>
      <trkpt lat="42.88146" lon="1.46045">
        <ele>1515.9301757812</ele>
        <time>2021-01-24T10:03:44Z</time>
      </trkpt>
      <trkpt lat="42.88144" lon="1.46058">
        <ele>1515.5131835938</ele>
        <time>2021-01-24T10:03:50Z</time>
      </trkpt>
      <trkpt lat="42.88142" lon="1.4607">
        <ele>1516.6774902344</ele>
        <time>2021-01-24T10:04:44Z</time>
      </trkpt>
      <trkpt lat="42.88142" lon="1.46083">
        <ele>1515.4291992188</ele>
        <time>2021-01-24T10:04:52Z</time>
      </trkpt>
      <trkpt lat="42.88141" lon="1.46096">
        <ele>1514.7375488281</ele>
        <time>2021-01-24T10:05:01Z</time>
      </trkpt>
      <trkpt lat="42.88137" lon="1.46108">
        <ele>1513.1713867188</ele>
        <time>2021-01-24T10:05:11Z</time>
      </trkpt>
      <trkpt lat="42.88134" lon="1.46121">
        <ele>1512.1372070312</ele>
        <time>2021-01-24T10:05:24Z</time>
      </trkpt>
      <trkpt lat="42.88133" lon="1.46134">
        <ele>1509.572265625</ele>
        <time>2021-01-24T10:07:37Z</time>
      </trkpt>
      <trkpt lat="42.88135" lon="1.46147">
        <ele>1508.3154296875</ele>
        <time>2021-01-24T10:07:47Z</time>
      </trkpt>
      <trkpt lat="42.88137" lon="1.46165">
        <ele>1504.8403320312</ele>
        <time>2021-01-24T10:08:11Z</time>
      </trkpt>
      <trkpt lat="42.88136" lon="1.46178">
        <ele>1500.7680664062</ele>
        <time>2021-01-24T10:09:30Z</time>
      </trkpt>
      <trkpt lat="42.88138" lon="1.46191">
        <ele>1498.8659667969</ele>
        <time>2021-01-24T10:09:36Z</time>
      </trkpt>
      <trkpt lat="42.88142" lon="1.46204">
        <ele>1495.8044433594</ele>
        <time>2021-01-24T10:09:44Z</time>
      </trkpt>
      <trkpt lat="42.88143" lon="1.46218">
        <ele>1493.6422119141</ele>
        <time>2021-01-24T10:09:52Z</time>
      </trkpt>
      <trkpt lat="42.88145" lon="1.46231">
        <ele>1491.5715332031</ele>
        <time>2021-01-24T10:10:00Z</time>
      </trkpt>
      <trkpt lat="42.88143" lon="1.46244">
        <ele>1489.7911376953</ele>
        <time>2021-01-24T10:10:10Z</time>
      </trkpt>
      <trkpt lat="42.88139" lon="1.46257">
        <ele>1487.9107666016</ele>
        <time>2021-01-24T10:10:19Z</time>
      </trkpt>
      <trkpt lat="42.88133" lon="1.46265">
        <ele>1487.1099853516</ele>
        <time>2021-01-24T10:10:27Z</time>
      </trkpt>
      <trkpt lat="42.88127" lon="1.46277">
        <ele>1485.2239990234</ele>
        <time>2021-01-24T10:10:37Z</time>
      </trkpt>
      <trkpt lat="42.88133" lon="1.46261">
        <ele>1487.8079833984</ele>
        <time>2021-01-24T10:13:18Z</time>
      </trkpt>
      <trkpt lat="42.8814" lon="1.46251">
        <ele>1488.1767578125</ele>
        <time>2021-01-24T10:13:28Z</time>
      </trkpt>
      <trkpt lat="42.88145" lon="1.4624">
        <ele>1488.1530761719</ele>
        <time>2021-01-24T10:13:40Z</time>
      </trkpt>
      <trkpt lat="42.88152" lon="1.4623">
        <ele>1490.1353759766</ele>
        <time>2021-01-24T10:13:50Z</time>
      </trkpt>
      <trkpt lat="42.88159" lon="1.46222">
        <ele>1491.1790771484</ele>
        <time>2021-01-24T10:13:59Z</time>
      </trkpt>
      <trkpt lat="42.88167" lon="1.46215">
        <ele>1493.5230712891</ele>
        <time>2021-01-24T10:14:13Z</time>
      </trkpt>
      <trkpt lat="42.8817" lon="1.46203">
        <ele>1492.7025146484</ele>
        <time>2021-01-24T10:19:10Z</time>
      </trkpt>
      <trkpt lat="42.88167" lon="1.46191">
        <ele>1493.3787841797</ele>
        <time>2021-01-24T10:19:22Z</time>
      </trkpt>
      <trkpt lat="42.88166" lon="1.46178">
        <ele>1493.4851074219</ele>
        <time>2021-01-24T10:19:36Z</time>
      </trkpt>
      <trkpt lat="42.88162" lon="1.46166">
        <ele>1494.2044677734</ele>
        <time>2021-01-24T10:19:50Z</time>
      </trkpt>
      <trkpt lat="42.88157" lon="1.46155">
        <ele>1496.2019042969</ele>
        <time>2021-01-24T10:20:04Z</time>
      </trkpt>
      <trkpt lat="42.88152" lon="1.46143">
        <ele>1499.6123046875</ele>
        <time>2021-01-24T10:20:19Z</time>
      </trkpt>
      <trkpt lat="42.88146" lon="1.46133">
        <ele>1503.9741210938</ele>
        <time>2021-01-24T10:20:34Z</time>
      </trkpt>
      <trkpt lat="42.88146" lon="1.46121">
        <ele>1503.9731445312</ele>
        <time>2021-01-24T10:20:50Z</time>
      </trkpt>
      <trkpt lat="42.88146" lon="1.46107">
        <ele>1504.2856445312</ele>
        <time>2021-01-24T10:21:08Z</time>
      </trkpt>
      <trkpt lat="42.88146" lon="1.46094">
        <ele>1505.6123046875</ele>
        <time>2021-01-24T10:21:22Z</time>
      </trkpt>
      <trkpt lat="42.88142" lon="1.46077">
        <ele>1507.6875</ele>
        <time>2021-01-24T10:21:44Z</time>
      </trkpt>
      <trkpt lat="42.88144" lon="1.46064">
        <ele>1507.4541015625</ele>
        <time>2021-01-24T10:21:58Z</time>
      </trkpt>
      <trkpt lat="42.88146" lon="1.46051">
        <ele>1510.3483886719</ele>
        <time>2021-01-24T10:22:16Z</time>
      </trkpt>
      <trkpt lat="42.88146" lon="1.46038">
        <ele>1515.4870605469</ele>
        <time>2021-01-24T10:23:41Z</time>
      </trkpt>
      <trkpt lat="42.88145" lon="1.46025">
        <ele>1517.6318359375</ele>
        <time>2021-01-24T10:23:50Z</time>
      </trkpt>
      <trkpt lat="42.88148" lon="1.46013">
        <ele>1518.3618164062</ele>
        <time>2021-01-24T10:24:40Z</time>
      </trkpt>
      <trkpt lat="42.88144" lon="1.46002">
        <ele>1518.0522460938</ele>
        <time>2021-01-24T10:24:52Z</time>
      </trkpt>
      <trkpt lat="42.88136" lon="1.45995">
        <ele>1515.5043945312</ele>
        <time>2021-01-24T10:25:00Z</time>
      </trkpt>
      <trkpt lat="42.88132" lon="1.45978">
        <ele>1509.5964355469</ele>
        <time>2021-01-24T10:25:16Z</time>
      </trkpt>
      <trkpt lat="42.88134" lon="1.45966">
        <ele>1503.3818359375</ele>
        <time>2021-01-24T10:25:28Z</time>
      </trkpt>
      <trkpt lat="42.88134" lon="1.45952">
        <ele>1501.6240234375</ele>
        <time>2021-01-24T10:25:40Z</time>
      </trkpt>
      <trkpt lat="42.88135" lon="1.45939">
        <ele>1497.5229492188</ele>
        <time>2021-01-24T10:25:52Z</time>
      </trkpt>
      <trkpt lat="42.88136" lon="1.45927">
        <ele>1498.5864257812</ele>
        <time>2021-01-24T10:26:02Z</time>
      </trkpt>
      <trkpt lat="42.8814" lon="1.45914">
        <ele>1497.3634033203</ele>
        <time>2021-01-24T10:26:15Z</time>
      </trkpt>
      <trkpt lat="42.88143" lon="1.45901">
        <ele>1504.8391113281</ele>
        <time>2021-01-24T10:26:26Z</time>
      </trkpt>
      <trkpt lat="42.88149" lon="1.4589">
        <ele>1507.0532226562</ele>
        <time>2021-01-24T10:27:56Z</time>
      </trkpt>
      <trkpt lat="42.88159" lon="1.45891">
        <ele>1503.6147460938</ele>
        <time>2021-01-24T10:28:39Z</time>
      </trkpt>
      <trkpt lat="42.88168" lon="1.45895">
        <ele>1498.1674804688</ele>
        <time>2021-01-24T10:28:48Z</time>
      </trkpt>
      <trkpt lat="42.88177" lon="1.45902">
        <ele>1493.4886474609</ele>
        <time>2021-01-24T10:28:57Z</time>
      </trkpt>
      <trkpt lat="42.88186" lon="1.45906">
        <ele>1490.35546875</ele>
        <time>2021-01-24T10:29:05Z</time>
      </trkpt>
      <trkpt lat="42.88195" lon="1.45911">
        <ele>1485.7717285156</ele>
        <time>2021-01-24T10:29:13Z</time>
      </trkpt>
      <trkpt lat="42.88201" lon="1.45922">
        <ele>1481.7590332031</ele>
        <time>2021-01-24T10:29:23Z</time>
      </trkpt>
      <trkpt lat="42.88203" lon="1.45935">
        <ele>1479.3645019531</ele>
        <time>2021-01-24T10:29:30Z</time>
      </trkpt>
      <trkpt lat="42.88206" lon="1.45947">
        <ele>1480.5321044922</ele>
        <time>2021-01-24T10:29:45Z</time>
      </trkpt>
      <trkpt lat="42.88217" lon="1.45939">
        <ele>1471.8009033203</ele>
        <time>2021-01-24T10:30:01Z</time>
      </trkpt>
      <trkpt lat="42.88224" lon="1.4593">
        <ele>1468.6345214844</ele>
        <time>2021-01-24T10:30:08Z</time>
      </trkpt>
      <trkpt lat="42.88227" lon="1.45942">
        <ele>1467.5933837891</ele>
        <time>2021-01-24T10:30:14Z</time>
      </trkpt>
      <trkpt lat="42.88238" lon="1.45938">
        <ele>1458.15234375</ele>
        <time>2021-01-24T10:30:40Z</time>
      </trkpt>
      <trkpt lat="42.88246" lon="1.45946">
        <ele>1455.1839599609</ele>
        <time>2021-01-24T10:30:46Z</time>
      </trkpt>
      <trkpt lat="42.88255" lon="1.45957">
        <ele>1452.0804443359</ele>
        <time>2021-01-24T10:31:14Z</time>
      </trkpt>
      <trkpt lat="42.88265" lon="1.45959">
        <ele>1448.5080566406</ele>
        <time>2021-01-24T10:31:20Z</time>
      </trkpt>
      <trkpt lat="42.88273" lon="1.45954">
        <ele>1446.6921386719</ele>
        <time>2021-01-24T10:31:38Z</time>
      </trkpt>
      <trkpt lat="42.88284" lon="1.45955">
        <ele>1445.0560302734</ele>
        <time>2021-01-24T10:31:54Z</time>
      </trkpt>
      <trkpt lat="42.88294" lon="1.45954">
        <ele>1443.8155517578</ele>
        <time>2021-01-24T10:32:01Z</time>
      </trkpt>
      <trkpt lat="42.88291" lon="1.45969">
        <ele>1438.0209960938</ele>
        <time>2021-01-24T10:32:36Z</time>
      </trkpt>
      <trkpt lat="42.88297" lon="1.45978">
        <ele>1436.4166259766</ele>
        <time>2021-01-24T10:35:15Z</time>
      </trkpt>
      <trkpt lat="42.88305" lon="1.45986">
        <ele>1433.6949462891</ele>
        <time>2021-01-24T10:35:22Z</time>
      </trkpt>
      <trkpt lat="42.88314" lon="1.45998">
        <ele>1430.9696044922</ele>
        <time>2021-01-24T10:35:38Z</time>
      </trkpt>
      <trkpt lat="42.88323" lon="1.46004">
        <ele>1424.9020996094</ele>
        <time>2021-01-24T10:35:47Z</time>
      </trkpt>
      <trkpt lat="42.88332" lon="1.46006">
        <ele>1420.8146972656</ele>
        <time>2021-01-24T10:35:57Z</time>
      </trkpt>
      <trkpt lat="42.88342" lon="1.46005">
        <ele>1417.5930175781</ele>
        <time>2021-01-24T10:36:09Z</time>
      </trkpt>
      <trkpt lat="42.88354" lon="1.46012">
        <ele>1411.9093017578</ele>
        <time>2021-01-24T10:36:21Z</time>
      </trkpt>
      <trkpt lat="42.88364" lon="1.46009">
        <ele>1410.6162109375</ele>
        <time>2021-01-24T10:36:29Z</time>
      </trkpt>
      <trkpt lat="42.88376" lon="1.46007">
        <ele>1410.533203125</ele>
        <time>2021-01-24T10:36:51Z</time>
      </trkpt>
      <trkpt lat="42.88379" lon="1.45994">
        <ele>1408.6789550781</ele>
        <time>2021-01-24T10:37:02Z</time>
      </trkpt>
      <trkpt lat="42.88382" lon="1.46006">
        <ele>1403.7474365234</ele>
        <time>2021-01-24T10:37:50Z</time>
      </trkpt>
      <trkpt lat="42.88385" lon="1.46018">
        <ele>1402.5356445312</ele>
        <time>2021-01-24T10:38:02Z</time>
      </trkpt>
      <trkpt lat="42.8839" lon="1.4603">
        <ele>1401.6252441406</ele>
        <time>2021-01-24T10:38:17Z</time>
      </trkpt>
      <trkpt lat="42.88396" lon="1.4604">
        <ele>1399.0450439453</ele>
        <time>2021-01-24T10:38:30Z</time>
      </trkpt>
      <trkpt lat="42.88402" lon="1.46049">
        <ele>1398.5766601562</ele>
        <time>2021-01-24T10:38:42Z</time>
      </trkpt>
      <trkpt lat="42.88412" lon="1.46049">
        <ele>1394.1821289062</ele>
        <time>2021-01-24T10:38:54Z</time>
      </trkpt>
      <trkpt lat="42.88418" lon="1.46038">
        <ele>1392.4254150391</ele>
        <time>2021-01-24T10:39:05Z</time>
      </trkpt>
      <trkpt lat="42.88428" lon="1.46038">
        <ele>1389.7677001953</ele>
        <time>2021-01-24T10:39:15Z</time>
      </trkpt>
      <trkpt lat="42.88434" lon="1.46048">
        <ele>1386.4725341797</ele>
        <time>2021-01-24T10:39:28Z</time>
      </trkpt>
      <trkpt lat="42.88442" lon="1.46055">
        <ele>1383.0249023438</ele>
        <time>2021-01-24T10:39:39Z</time>
      </trkpt>
      <trkpt lat="42.88448" lon="1.46067">
        <ele>1380.5261230469</ele>
        <time>2021-01-24T10:39:51Z</time>
      </trkpt>
      <trkpt lat="42.88457" lon="1.46073">
        <ele>1378.46875</ele>
        <time>2021-01-24T10:40:05Z</time>
      </trkpt>
      <trkpt lat="42.88465" lon="1.46078">
        <ele>1376.1613769531</ele>
        <time>2021-01-24T10:40:16Z</time>
      </trkpt>
      <trkpt lat="42.88475" lon="1.46082">
        <ele>1373.7498779297</ele>
        <time>2021-01-24T10:40:30Z</time>
      </trkpt>
      <trkpt lat="42.88484" lon="1.46087">
        <ele>1371.9016113281</ele>
        <time>2021-01-24T10:40:51Z</time>
      </trkpt>
      <trkpt lat="42.88493" lon="1.46088">
        <ele>1369.6520996094</ele>
        <time>2021-01-24T10:41:06Z</time>
      </trkpt>
      <trkpt lat="42.88503" lon="1.46089">
        <ele>1368.1121826172</ele>
        <time>2021-01-24T10:41:20Z</time>
      </trkpt>
      <trkpt lat="42.88512" lon="1.46095">
        <ele>1360.6010742188</ele>
        <time>2021-01-24T10:42:46Z</time>
      </trkpt>
      <trkpt lat="42.88521" lon="1.46099">
        <ele>1356.3923339844</ele>
        <time>2021-01-24T10:42:51Z</time>
      </trkpt>
      <trkpt lat="42.88531" lon="1.46103">
        <ele>1353.2762451172</ele>
        <time>2021-01-24T10:42:58Z</time>
      </trkpt>
      <trkpt lat="42.88544" lon="1.46103">
        <ele>1350.548828125</ele>
        <time>2021-01-24T10:43:12Z</time>
      </trkpt>
      <trkpt lat="42.88554" lon="1.46102">
        <ele>1348.5748291016</ele>
        <time>2021-01-24T10:43:23Z</time>
      </trkpt>
      <trkpt lat="42.88562" lon="1.46097">
        <ele>1349.5306396484</ele>
        <time>2021-01-24T10:43:41Z</time>
      </trkpt>
      <trkpt lat="42.88571" lon="1.46093">
        <ele>1350.6851806641</ele>
        <time>2021-01-24T10:43:49Z</time>
      </trkpt>
      <trkpt lat="42.8858" lon="1.46088">
        <ele>1350.5762939453</ele>
        <time>2021-01-24T10:43:59Z</time>
      </trkpt>
      <trkpt lat="42.8859" lon="1.46082">
        <ele>1351.3498535156</ele>
        <time>2021-01-24T10:44:10Z</time>
      </trkpt>
      <trkpt lat="42.88599" lon="1.46089">
        <ele>1351.2183837891</ele>
        <time>2021-01-24T10:45:06Z</time>
      </trkpt>
      <trkpt lat="42.88608" lon="1.46094">
        <ele>1350.03125</ele>
        <time>2021-01-24T10:45:17Z</time>
      </trkpt>
      <trkpt lat="42.88611" lon="1.46107">
        <ele>1347.2386474609</ele>
        <time>2021-01-24T10:45:38Z</time>
      </trkpt>
      <trkpt lat="42.88615" lon="1.46119">
        <ele>1344.5938720703</ele>
        <time>2021-01-24T10:45:50Z</time>
      </trkpt>
      <trkpt lat="42.88621" lon="1.46129">
        <ele>1343.7650146484</ele>
        <time>2021-01-24T10:46:01Z</time>
      </trkpt>
      <trkpt lat="42.88626" lon="1.46141">
        <ele>1339.2742919922</ele>
        <time>2021-01-24T10:46:11Z</time>
      </trkpt>
      <trkpt lat="42.88629" lon="1.46152">
        <ele>1335.7178955078</ele>
        <time>2021-01-24T10:46:19Z</time>
      </trkpt>
      <trkpt lat="42.88639" lon="1.46161">
        <ele>1331.9838867188</ele>
        <time>2021-01-24T10:46:32Z</time>
      </trkpt>
      <trkpt lat="42.88648" lon="1.46164">
        <ele>1329.0187988281</ele>
        <time>2021-01-24T10:46:42Z</time>
      </trkpt>
      <trkpt lat="42.88656" lon="1.46172">
        <ele>1325.8388671875</ele>
        <time>2021-01-24T10:50:01Z</time>
      </trkpt>
      <trkpt lat="42.88662" lon="1.46181">
        <ele>1325.0563964844</ele>
        <time>2021-01-24T10:50:11Z</time>
      </trkpt>
      <trkpt lat="42.8867" lon="1.46197">
        <ele>1321.6909179688</ele>
        <time>2021-01-24T10:50:31Z</time>
      </trkpt>
      <trkpt lat="42.88675" lon="1.46208">
        <ele>1318.9304199219</ele>
        <time>2021-01-24T10:50:46Z</time>
      </trkpt>
      <trkpt lat="42.88688" lon="1.46204">
        <ele>1312.3236083984</ele>
        <time>2021-01-24T10:51:06Z</time>
      </trkpt>
      <trkpt lat="42.88698" lon="1.46203">
        <ele>1313.9167480469</ele>
        <time>2021-01-24T10:52:51Z</time>
      </trkpt>
      <trkpt lat="42.88708" lon="1.462">
        <ele>1314.4031982422</ele>
        <time>2021-01-24T10:53:09Z</time>
      </trkpt>
      <trkpt lat="42.88717" lon="1.462">
        <ele>1314.8226318359</ele>
        <time>2021-01-24T10:53:19Z</time>
      </trkpt>
      <trkpt lat="42.88724" lon="1.46208">
        <ele>1310.5257568359</ele>
        <time>2021-01-24T10:53:35Z</time>
      </trkpt>
      <trkpt lat="42.88729" lon="1.4622">
        <ele>1307.2977294922</ele>
        <time>2021-01-24T10:53:48Z</time>
      </trkpt>
      <trkpt lat="42.88729" lon="1.46232">
        <ele>1302.4244384766</ele>
        <time>2021-01-24T10:54:05Z</time>
      </trkpt>
      <trkpt lat="42.88741" lon="1.46239">
        <ele>1299.1647949219</ele>
        <time>2021-01-24T10:54:25Z</time>
      </trkpt>
      <trkpt lat="42.88749" lon="1.46246">
        <ele>1295.1090087891</ele>
        <time>2021-01-24T10:54:42Z</time>
      </trkpt>
      <trkpt lat="42.88754" lon="1.46258">
        <ele>1290.2863769531</ele>
        <time>2021-01-24T10:55:00Z</time>
      </trkpt>
      <trkpt lat="42.88754" lon="1.46271">
        <ele>1288.2927246094</ele>
        <time>2021-01-24T10:55:13Z</time>
      </trkpt>
      <trkpt lat="42.88761" lon="1.46279">
        <ele>1285.7801513672</ele>
        <time>2021-01-24T10:55:25Z</time>
      </trkpt>
      <trkpt lat="42.88768" lon="1.46288">
        <ele>1282.1090087891</ele>
        <time>2021-01-24T10:55:42Z</time>
      </trkpt>
      <trkpt lat="42.88772" lon="1.463">
        <ele>1277.6263427734</ele>
        <time>2021-01-24T10:55:57Z</time>
      </trkpt>
      <trkpt lat="42.88781" lon="1.46304">
        <ele>1275.3439941406</ele>
        <time>2021-01-24T10:56:15Z</time>
      </trkpt>
      <trkpt lat="42.88791" lon="1.46309">
        <ele>1268.9138183594</ele>
        <time>2021-01-24T10:56:27Z</time>
      </trkpt>
      <trkpt lat="42.88798" lon="1.46319">
        <ele>1267.9018554688</ele>
        <time>2021-01-24T10:56:46Z</time>
      </trkpt>
      <trkpt lat="42.88805" lon="1.46328">
        <ele>1266.2515869141</ele>
        <time>2021-01-24T10:56:54Z</time>
      </trkpt>
      <trkpt lat="42.88813" lon="1.46334">
        <ele>1266.0131835938</ele>
        <time>2021-01-24T10:57:10Z</time>
      </trkpt>
      <trkpt lat="42.88821" lon="1.46341">
        <ele>1262.3096923828</ele>
        <time>2021-01-24T10:57:20Z</time>
      </trkpt>
      <trkpt lat="42.88827" lon="1.46351">
        <ele>1262.7922363281</ele>
        <time>2021-01-24T10:57:28Z</time>
      </trkpt>
      <trkpt lat="42.88832" lon="1.46362">
        <ele>1262.0943603516</ele>
        <time>2021-01-24T10:57:36Z</time>
      </trkpt>
      <trkpt lat="42.88836" lon="1.46376">
        <ele>1261.8594970703</ele>
        <time>2021-01-24T10:57:48Z</time>
      </trkpt>
      <trkpt lat="42.88841" lon="1.46387">
        <ele>1262.4581298828</ele>
        <time>2021-01-24T10:57:59Z</time>
      </trkpt>
      <trkpt lat="42.88843" lon="1.464">
        <ele>1260.6098632812</ele>
        <time>2021-01-24T10:58:13Z</time>
      </trkpt>
      <trkpt lat="42.88852" lon="1.46411">
        <ele>1255.4799804688</ele>
        <time>2021-01-24T11:00:48Z</time>
      </trkpt>
      <trkpt lat="42.88861" lon="1.46405">
        <ele>1251.3052978516</ele>
        <time>2021-01-24T11:01:03Z</time>
      </trkpt>
      <trkpt lat="42.8887" lon="1.46407">
        <ele>1249.1993408203</ele>
        <time>2021-01-24T11:01:20Z</time>
      </trkpt>
      <trkpt lat="42.88876" lon="1.46417">
        <ele>1243.7728271484</ele>
        <time>2021-01-24T11:01:33Z</time>
      </trkpt>
      <trkpt lat="42.88885" lon="1.4642">
        <ele>1241.2622070312</ele>
        <time>2021-01-24T11:01:53Z</time>
      </trkpt>
      <trkpt lat="42.88894" lon="1.46418">
        <ele>1239.9829101562</ele>
        <time>2021-01-24T11:02:03Z</time>
      </trkpt>
      <trkpt lat="42.88903" lon="1.4642">
        <ele>1237.0180664062</ele>
        <time>2021-01-24T11:02:16Z</time>
      </trkpt>
      <trkpt lat="42.88913" lon="1.46419">
        <ele>1237.1522216797</ele>
        <time>2021-01-24T11:02:38Z</time>
      </trkpt>
      <trkpt lat="42.88921" lon="1.46412">
        <ele>1237.0147705078</ele>
        <time>2021-01-24T11:02:48Z</time>
      </trkpt>
      <trkpt lat="42.8893" lon="1.46413">
        <ele>1237.2495117188</ele>
        <time>2021-01-24T11:03:09Z</time>
      </trkpt>
      <trkpt lat="42.88941" lon="1.4642">
        <ele>1237.6689453125</ele>
        <time>2021-01-24T11:03:39Z</time>
      </trkpt>
      <trkpt lat="42.88931" lon="1.4641">
        <ele>1241.1531982422</ele>
        <time>2021-01-24T11:04:52Z</time>
      </trkpt>
      <trkpt lat="42.88922" lon="1.46409">
        <ele>1239.5700683594</ele>
        <time>2021-01-24T11:05:02Z</time>
      </trkpt>
      <trkpt lat="42.88915" lon="1.46418">
        <ele>1232.6867675781</ele>
        <time>2021-01-24T11:05:16Z</time>
      </trkpt>
      <trkpt lat="42.88908" lon="1.46427">
        <ele>1234.0079345703</ele>
        <time>2021-01-24T11:05:30Z</time>
      </trkpt>
      <trkpt lat="42.88899" lon="1.46433">
        <ele>1235.1682128906</ele>
        <time>2021-01-24T11:05:40Z</time>
      </trkpt>
      <trkpt lat="42.88895" lon="1.46445">
        <ele>1235.0478515625</ele>
        <time>2021-01-24T11:05:51Z</time>
      </trkpt>
      <trkpt lat="42.88889" lon="1.46454">
        <ele>1234.1163330078</ele>
        <time>2021-01-24T11:06:16Z</time>
      </trkpt>
      <trkpt lat="42.88886" lon="1.46467">
        <ele>1235.0963134766</ele>
        <time>2021-01-24T11:06:30Z</time>
      </trkpt>
      <trkpt lat="42.88883" lon="1.46479">
        <ele>1238.2318115234</ele>
        <time>2021-01-24T11:06:59Z</time>
      </trkpt>
      <trkpt lat="42.88874" lon="1.46485">
        <ele>1240.9031982422</ele>
        <time>2021-01-24T11:07:10Z</time>
      </trkpt>
      <trkpt lat="42.88865" lon="1.46489">
        <ele>1240.4833984375</ele>
        <time>2021-01-24T11:07:29Z</time>
      </trkpt>
      <trkpt lat="42.8886" lon="1.46478">
        <ele>1238.0906982422</ele>
        <time>2021-01-24T11:10:07Z</time>
      </trkpt>
      <trkpt lat="42.88861" lon="1.4649">
        <ele>1231.0767822266</ele>
        <time>2021-01-24T11:48:39Z</time>
      </trkpt>
      <trkpt lat="42.8886" lon="1.46507">
        <ele>1226.4948730469</ele>
        <time>2021-01-24T11:49:12Z</time>
      </trkpt>
      <trkpt lat="42.88858" lon="1.4652">
        <ele>1218.0882568359</ele>
        <time>2021-01-24T11:49:25Z</time>
      </trkpt>
      <trkpt lat="42.88852" lon="1.46531">
        <ele>1214.0368652344</ele>
        <time>2021-01-24T11:49:48Z</time>
      </trkpt>
      <trkpt lat="42.88849" lon="1.46547">
        <ele>1211.5069580078</ele>
        <time>2021-01-24T11:50:04Z</time>
      </trkpt>
      <trkpt lat="42.88858" lon="1.46552">
        <ele>1209.2646484375</ele>
        <time>2021-01-24T11:50:25Z</time>
      </trkpt>
      <trkpt lat="42.88868" lon="1.46549">
        <ele>1208.0233154297</ele>
        <time>2021-01-24T11:50:47Z</time>
      </trkpt>
      <trkpt lat="42.88878" lon="1.4655">
        <ele>1206.0447998047</ele>
        <time>2021-01-24T11:50:56Z</time>
      </trkpt>
      <trkpt lat="42.88891" lon="1.46555">
        <ele>1192.5563964844</ele>
        <time>2021-01-24T11:51:23Z</time>
      </trkpt>
      <trkpt lat="42.88901" lon="1.46551">
        <ele>1190.8640136719</ele>
        <time>2021-01-24T11:51:32Z</time>
      </trkpt>
      <trkpt lat="42.88909" lon="1.46554">
        <ele>1194.3126220703</ele>
        <time>2021-01-24T11:51:41Z</time>
      </trkpt>
      <trkpt lat="42.88919" lon="1.4656">
        <ele>1192.1533203125</ele>
        <time>2021-01-24T11:51:57Z</time>
      </trkpt>
      <trkpt lat="42.88911" lon="1.46573">
        <ele>1185.7264404297</ele>
        <time>2021-01-24T11:54:23Z</time>
      </trkpt>
      <trkpt lat="42.88915" lon="1.46586">
        <ele>1195.8572998047</ele>
        <time>2021-01-24T11:55:12Z</time>
      </trkpt>
      <trkpt lat="42.88913" lon="1.46598">
        <ele>1191.0881347656</ele>
        <time>2021-01-24T11:55:56Z</time>
      </trkpt>
      <trkpt lat="42.8891" lon="1.4661">
        <ele>1194.5728759766</ele>
        <time>2021-01-24T11:56:31Z</time>
      </trkpt>
      <trkpt lat="42.88916" lon="1.46621">
        <ele>1190.359375</ele>
        <time>2021-01-24T11:56:43Z</time>
      </trkpt>
      <trkpt lat="42.88923" lon="1.4663">
        <ele>1185.1242675781</ele>
        <time>2021-01-24T11:56:56Z</time>
      </trkpt>
      <trkpt lat="42.88935" lon="1.46629">
        <ele>1186.1533203125</ele>
        <time>2021-01-24T11:58:18Z</time>
      </trkpt>
      <trkpt lat="42.88944" lon="1.46627">
        <ele>1183.1920166016</ele>
        <time>2021-01-24T11:58:50Z</time>
      </trkpt>
      <trkpt lat="42.88951" lon="1.46635">
        <ele>1178.3094482422</ele>
        <time>2021-01-24T11:59:25Z</time>
      </trkpt>
      <trkpt lat="42.8895" lon="1.46648">
        <ele>1175.8542480469</ele>
        <time>2021-01-24T11:59:58Z</time>
      </trkpt>
      <trkpt lat="42.8896" lon="1.4664">
        <ele>1168.9716796875</ele>
        <time>2021-01-24T12:01:30Z</time>
      </trkpt>
      <trkpt lat="42.88965" lon="1.46627">
        <ele>1167.0120849609</ele>
        <time>2021-01-24T12:01:43Z</time>
      </trkpt>
      <trkpt lat="42.8897" lon="1.46616">
        <ele>1168.3541259766</ele>
        <time>2021-01-24T12:02:17Z</time>
      </trkpt>
      <trkpt lat="42.88976" lon="1.46604">
        <ele>1167.3341064453</ele>
        <time>2021-01-24T12:02:37Z</time>
      </trkpt>
      <trkpt lat="42.88983" lon="1.46595">
        <ele>1167.4274902344</ele>
        <time>2021-01-24T12:02:44Z</time>
      </trkpt>
      <trkpt lat="42.88989" lon="1.46584">
        <ele>1168.2681884766</ele>
        <time>2021-01-24T12:02:52Z</time>
      </trkpt>
      <trkpt lat="42.88994" lon="1.46571">
        <ele>1169.0130615234</ele>
        <time>2021-01-24T12:03:01Z</time>
      </trkpt>
      <trkpt lat="42.89" lon="1.46561">
        <ele>1169.9527587891</ele>
        <time>2021-01-24T12:03:09Z</time>
      </trkpt>
      <trkpt lat="42.89007" lon="1.46551">
        <ele>1171.2393798828</ele>
        <time>2021-01-24T12:03:18Z</time>
      </trkpt>
      <trkpt lat="42.89015" lon="1.46541">
        <ele>1173.3236083984</ele>
        <time>2021-01-24T12:03:27Z</time>
      </trkpt>
      <trkpt lat="42.89021" lon="1.46531">
        <ele>1173.8043212891</ele>
        <time>2021-01-24T12:03:35Z</time>
      </trkpt>
      <trkpt lat="42.89027" lon="1.46519">
        <ele>1170.1180419922</ele>
        <time>2021-01-24T12:03:43Z</time>
      </trkpt>
      <trkpt lat="42.89026" lon="1.46506">
        <ele>1168.8094482422</ele>
        <time>2021-01-24T12:03:54Z</time>
      </trkpt>
      <trkpt lat="42.89029" lon="1.46494">
        <ele>1168.0876464844</ele>
        <time>2021-01-24T12:04:03Z</time>
      </trkpt>
      <trkpt lat="42.89033" lon="1.46481">
        <ele>1165.2972412109</ele>
        <time>2021-01-24T12:04:13Z</time>
      </trkpt>
      <trkpt lat="42.89034" lon="1.46468">
        <ele>1161.0538330078</ele>
        <time>2021-01-24T12:04:22Z</time>
      </trkpt>
      <trkpt lat="42.89038" lon="1.46455">
        <ele>1160.8873291016</ele>
        <time>2021-01-24T12:04:32Z</time>
      </trkpt>
      <trkpt lat="42.89045" lon="1.46443">
        <ele>1163.5489501953</ele>
        <time>2021-01-24T12:04:40Z</time>
      </trkpt>
      <trkpt lat="42.89052" lon="1.46432">
        <ele>1165.4205322266</ele>
        <time>2021-01-24T12:04:48Z</time>
      </trkpt>
      <trkpt lat="42.89058" lon="1.4642">
        <ele>1162.8830566406</ele>
        <time>2021-01-24T12:05:00Z</time>
      </trkpt>
      <trkpt lat="42.89065" lon="1.46412">
        <ele>1163.2377929688</ele>
        <time>2021-01-24T12:05:09Z</time>
      </trkpt>
      <trkpt lat="42.89075" lon="1.46411">
        <ele>1162.4196777344</ele>
        <time>2021-01-24T12:05:20Z</time>
      </trkpt>
      <trkpt lat="42.89084" lon="1.46411">
        <ele>1162.6875</ele>
        <time>2021-01-24T12:05:29Z</time>
      </trkpt>
      <trkpt lat="42.89094" lon="1.46409">
        <ele>1161.2606201172</ele>
        <time>2021-01-24T12:05:39Z</time>
      </trkpt>
      <trkpt lat="42.89103" lon="1.46408">
        <ele>1160.4488525391</ele>
        <time>2021-01-24T12:05:49Z</time>
      </trkpt>
      <trkpt lat="42.89113" lon="1.46406">
        <ele>1160.3953857422</ele>
        <time>2021-01-24T12:05:58Z</time>
      </trkpt>
      <trkpt lat="42.89123" lon="1.46407">
        <ele>1158.8524169922</ele>
        <time>2021-01-24T12:06:07Z</time>
      </trkpt>
      <trkpt lat="42.89133" lon="1.46409">
        <ele>1156.5401611328</ele>
        <time>2021-01-24T12:06:17Z</time>
      </trkpt>
      <trkpt lat="42.89142" lon="1.46411">
        <ele>1156.0124511719</ele>
        <time>2021-01-24T12:06:24Z</time>
      </trkpt>
      <trkpt lat="42.89151" lon="1.46415">
        <ele>1156.5634765625</ele>
        <time>2021-01-24T12:06:33Z</time>
      </trkpt>
      <trkpt lat="42.89161" lon="1.46419">
        <ele>1155.4881591797</ele>
        <time>2021-01-24T12:06:42Z</time>
      </trkpt>
      <trkpt lat="42.8917" lon="1.46422">
        <ele>1154.4808349609</ele>
        <time>2021-01-24T12:06:50Z</time>
      </trkpt>
      <trkpt lat="42.89179" lon="1.46426">
        <ele>1152.8823242188</ele>
        <time>2021-01-24T12:06:58Z</time>
      </trkpt>
      <trkpt lat="42.89188" lon="1.46434">
        <ele>1153.0916748047</ele>
        <time>2021-01-24T12:07:07Z</time>
      </trkpt>
      <trkpt lat="42.89196" lon="1.46441">
        <ele>1152.2517089844</ele>
        <time>2021-01-24T12:07:15Z</time>
      </trkpt>
      <trkpt lat="42.89204" lon="1.4645">
        <ele>1151.0964355469</ele>
        <time>2021-01-24T12:07:24Z</time>
      </trkpt>
      <trkpt lat="42.89209" lon="1.46461">
        <ele>1151.0970458984</ele>
        <time>2021-01-24T12:07:32Z</time>
      </trkpt>
      <trkpt lat="42.89214" lon="1.46472">
        <ele>1148.8703613281</ele>
        <time>2021-01-24T12:07:40Z</time>
      </trkpt>
      <trkpt lat="42.89217" lon="1.46485">
        <ele>1148.3741455078</ele>
        <time>2021-01-24T12:07:49Z</time>
      </trkpt>
      <trkpt lat="42.89218" lon="1.46499">
        <ele>1150.4020996094</ele>
        <time>2021-01-24T12:07:57Z</time>
      </trkpt>
      <trkpt lat="42.8922" lon="1.46514">
        <ele>1153.7907714844</ele>
        <time>2021-01-24T12:08:04Z</time>
      </trkpt>
      <trkpt lat="42.89221" lon="1.46528">
        <ele>1155.6265869141</ele>
        <time>2021-01-24T12:08:11Z</time>
      </trkpt>
      <trkpt lat="42.89221" lon="1.46541">
        <ele>1154.8752441406</ele>
        <time>2021-01-24T12:08:18Z</time>
      </trkpt>
      <trkpt lat="42.89222" lon="1.46555">
        <ele>1150.6552734375</ele>
        <time>2021-01-24T12:08:30Z</time>
      </trkpt>
      <trkpt lat="42.89226" lon="1.46567">
        <ele>1149.845703125</ele>
        <time>2021-01-24T12:08:39Z</time>
      </trkpt>
      <trkpt lat="42.89232" lon="1.46579">
        <ele>1150.6474609375</ele>
        <time>2021-01-24T12:08:48Z</time>
      </trkpt>
      <trkpt lat="42.89233" lon="1.46593">
        <ele>1149.9172363281</ele>
        <time>2021-01-24T12:08:57Z</time>
      </trkpt>
      <trkpt lat="42.89235" lon="1.46605">
        <ele>1146.7056884766</ele>
        <time>2021-01-24T12:09:05Z</time>
      </trkpt>
      <trkpt lat="42.89235" lon="1.46618">
        <ele>1146.1245117188</ele>
        <time>2021-01-24T12:09:14Z</time>
      </trkpt>
      <trkpt lat="42.89233" lon="1.46632">
        <ele>1144.8175048828</ele>
        <time>2021-01-24T12:09:23Z</time>
      </trkpt>
      <trkpt lat="42.89232" lon="1.46644">
        <ele>1144.8905029297</ele>
        <time>2021-01-24T12:09:31Z</time>
      </trkpt>
      <trkpt lat="42.89231" lon="1.46657">
        <ele>1144.0418701172</ele>
        <time>2021-01-24T12:09:39Z</time>
      </trkpt>
      <trkpt lat="42.8923" lon="1.46671">
        <ele>1143.5233154297</ele>
        <time>2021-01-24T12:09:49Z</time>
      </trkpt>
      <trkpt lat="42.8923" lon="1.46685">
        <ele>1144.3139648438</ele>
        <time>2021-01-24T12:09:57Z</time>
      </trkpt>
      <trkpt lat="42.8923" lon="1.46698">
        <ele>1143.9442138672</ele>
        <time>2021-01-24T12:10:04Z</time>
      </trkpt>
      <trkpt lat="42.89232" lon="1.46711">
        <ele>1141.5734863281</ele>
        <time>2021-01-24T12:10:15Z</time>
      </trkpt>
      <trkpt lat="42.89234" lon="1.46723">
        <ele>1140.4985351562</ele>
        <time>2021-01-24T12:10:25Z</time>
      </trkpt>
      <trkpt lat="42.89237" lon="1.46736">
        <ele>1138.6636962891</ele>
        <time>2021-01-24T12:10:34Z</time>
      </trkpt>
      <trkpt lat="42.8924" lon="1.46749">
        <ele>1138.7119140625</ele>
        <time>2021-01-24T12:10:42Z</time>
      </trkpt>
      <trkpt lat="42.89243" lon="1.46762">
        <ele>1139.2116699219</ele>
        <time>2021-01-24T12:10:50Z</time>
      </trkpt>
      <trkpt lat="42.89245" lon="1.46775">
        <ele>1140.6184082031</ele>
        <time>2021-01-24T12:10:57Z</time>
      </trkpt>
      <trkpt lat="42.89248" lon="1.46789">
        <ele>1138.5810546875</ele>
        <time>2021-01-24T12:11:07Z</time>
      </trkpt>
      <trkpt lat="42.89251" lon="1.46802">
        <ele>1135.7786865234</ele>
        <time>2021-01-24T12:11:16Z</time>
      </trkpt>
      <trkpt lat="42.89253" lon="1.46815">
        <ele>1134.4016113281</ele>
        <time>2021-01-24T12:11:26Z</time>
      </trkpt>
      <trkpt lat="42.89256" lon="1.46828">
        <ele>1134.0544433594</ele>
        <time>2021-01-24T12:11:35Z</time>
      </trkpt>
      <trkpt lat="42.89258" lon="1.4684">
        <ele>1131.2041015625</ele>
        <time>2021-01-24T12:11:43Z</time>
      </trkpt>
      <trkpt lat="42.89263" lon="1.4685">
        <ele>1132.3063964844</ele>
        <time>2021-01-24T12:11:53Z</time>
      </trkpt>
      <trkpt lat="42.89267" lon="1.46864">
        <ele>1131.7720947266</ele>
        <time>2021-01-24T12:12:02Z</time>
      </trkpt>
      <trkpt lat="42.89268" lon="1.46876">
        <ele>1130.5321044922</ele>
        <time>2021-01-24T12:12:10Z</time>
      </trkpt>
      <trkpt lat="42.89271" lon="1.46889">
        <ele>1130.6304931641</ele>
        <time>2021-01-24T12:12:18Z</time>
      </trkpt>
      <trkpt lat="42.89275" lon="1.46901">
        <ele>1130.0474853516</ele>
        <time>2021-01-24T12:12:25Z</time>
      </trkpt>
      <trkpt lat="42.89278" lon="1.46914">
        <ele>1129.1179199219</ele>
        <time>2021-01-24T12:12:34Z</time>
      </trkpt>
      <trkpt lat="42.89285" lon="1.46925">
        <ele>1128.8205566406</ele>
        <time>2021-01-24T12:12:43Z</time>
      </trkpt>
      <trkpt lat="42.89294" lon="1.4693">
        <ele>1130.8408203125</ele>
        <time>2021-01-24T12:12:52Z</time>
      </trkpt>
      <trkpt lat="42.89302" lon="1.46939">
        <ele>1133.0290527344</ele>
        <time>2021-01-24T12:13:01Z</time>
      </trkpt>
      <trkpt lat="42.8931" lon="1.46948">
        <ele>1136.2741699219</ele>
        <time>2021-01-24T12:13:08Z</time>
      </trkpt>
      <trkpt lat="42.89318" lon="1.46956">
        <ele>1140.1170654297</ele>
        <time>2021-01-24T12:13:14Z</time>
      </trkpt>
      <trkpt lat="42.89327" lon="1.46963">
        <ele>1139.2655029297</ele>
        <time>2021-01-24T12:13:27Z</time>
      </trkpt>
      <trkpt lat="42.89326" lon="1.4695">
        <ele>1128.6530761719</ele>
        <time>2021-01-24T12:14:38Z</time>
      </trkpt>
      <trkpt lat="42.89329" lon="1.46965">
        <ele>1135.5855712891</ele>
        <time>2021-01-24T12:14:47Z</time>
      </trkpt>
      <trkpt lat="42.89335" lon="1.46975">
        <ele>1135.4326171875</ele>
        <time>2021-01-24T12:14:57Z</time>
      </trkpt>
      <trkpt lat="42.89345" lon="1.4698">
        <ele>1135.7219238281</ele>
        <time>2021-01-24T12:15:07Z</time>
      </trkpt>
      <trkpt lat="42.89354" lon="1.46978">
        <ele>1135.9241943359</ele>
        <time>2021-01-24T12:15:15Z</time>
      </trkpt>
      <trkpt lat="42.89363" lon="1.46969">
        <ele>1137.0655517578</ele>
        <time>2021-01-24T12:15:23Z</time>
      </trkpt>
      <trkpt lat="42.89368" lon="1.46958">
        <ele>1137.7314453125</ele>
        <time>2021-01-24T12:15:30Z</time>
      </trkpt>
      <trkpt lat="42.89373" lon="1.46945">
        <ele>1139.2956542969</ele>
        <time>2021-01-24T12:15:39Z</time>
      </trkpt>
      <trkpt lat="42.89378" lon="1.46934">
        <ele>1137.8023681641</ele>
        <time>2021-01-24T12:15:50Z</time>
      </trkpt>
      <trkpt lat="42.89382" lon="1.46922">
        <ele>1135.1370849609</ele>
        <time>2021-01-24T12:16:00Z</time>
      </trkpt>
      <trkpt lat="42.89387" lon="1.4691">
        <ele>1133.5372314453</ele>
        <time>2021-01-24T12:16:09Z</time>
      </trkpt>
      <trkpt lat="42.89392" lon="1.46899">
        <ele>1133.6022949219</ele>
        <time>2021-01-24T12:16:18Z</time>
      </trkpt>
      <trkpt lat="42.89396" lon="1.46888">
        <ele>1134.3149414062</ele>
        <time>2021-01-24T12:16:26Z</time>
      </trkpt>
      <trkpt lat="42.894" lon="1.46876">
        <ele>1133.0405273438</ele>
        <time>2021-01-24T12:16:35Z</time>
      </trkpt>
      <trkpt lat="42.89402" lon="1.46863">
        <ele>1131.1390380859</ele>
        <time>2021-01-24T12:16:44Z</time>
      </trkpt>
      <trkpt lat="42.89403" lon="1.4685">
        <ele>1129.5180664062</ele>
        <time>2021-01-24T12:16:54Z</time>
      </trkpt>
      <trkpt lat="42.89407" lon="1.46839">
        <ele>1128.3430175781</ele>
        <time>2021-01-24T12:17:03Z</time>
      </trkpt>
      <trkpt lat="42.89411" lon="1.46827">
        <ele>1128.9172363281</ele>
        <time>2021-01-24T12:17:12Z</time>
      </trkpt>
      <trkpt lat="42.89414" lon="1.46815">
        <ele>1127.6240234375</ele>
        <time>2021-01-24T12:17:21Z</time>
      </trkpt>
      <trkpt lat="42.89416" lon="1.46801">
        <ele>1125.3594970703</ele>
        <time>2021-01-24T12:17:30Z</time>
      </trkpt>
      <trkpt lat="42.89419" lon="1.46789">
        <ele>1126.9267578125</ele>
        <time>2021-01-24T12:17:38Z</time>
      </trkpt>
      <trkpt lat="42.89423" lon="1.46775">
        <ele>1126.6479492188</ele>
        <time>2021-01-24T12:17:48Z</time>
      </trkpt>
      <trkpt lat="42.89427" lon="1.46763">
        <ele>1125.9226074219</ele>
        <time>2021-01-24T12:17:56Z</time>
      </trkpt>
      <trkpt lat="42.89431" lon="1.4675">
        <ele>1124.7905273438</ele>
        <time>2021-01-24T12:18:06Z</time>
      </trkpt>
      <trkpt lat="42.89435" lon="1.46738">
        <ele>1125.791015625</ele>
        <time>2021-01-24T12:18:14Z</time>
      </trkpt>
      <trkpt lat="42.8944" lon="1.46726">
        <ele>1125.3197021484</ele>
        <time>2021-01-24T12:18:22Z</time>
      </trkpt>
      <trkpt lat="42.89446" lon="1.46715">
        <ele>1124.9460449219</ele>
        <time>2021-01-24T12:18:31Z</time>
      </trkpt>
      <trkpt lat="42.89452" lon="1.46704">
        <ele>1125.2862548828</ele>
        <time>2021-01-24T12:18:39Z</time>
      </trkpt>
      <trkpt lat="42.89457" lon="1.46692">
        <ele>1125.9440917969</ele>
        <time>2021-01-24T12:18:47Z</time>
      </trkpt>
      <trkpt lat="42.89461" lon="1.46679">
        <ele>1125.1726074219</ele>
        <time>2021-01-24T12:18:55Z</time>
      </trkpt>
      <trkpt lat="42.89466" lon="1.46668">
        <ele>1124.234375</ele>
        <time>2021-01-24T12:19:03Z</time>
      </trkpt>
      <trkpt lat="42.8947" lon="1.46655">
        <ele>1122.7482910156</ele>
        <time>2021-01-24T12:19:12Z</time>
      </trkpt>
      <trkpt lat="42.89475" lon="1.46645">
        <ele>1122.5024414062</ele>
        <time>2021-01-24T12:19:20Z</time>
      </trkpt>
      <trkpt lat="42.8948" lon="1.46633">
        <ele>1121.8149414062</ele>
        <time>2021-01-24T12:19:28Z</time>
      </trkpt>
      <trkpt lat="42.89484" lon="1.46622">
        <ele>1122.1840820312</ele>
        <time>2021-01-24T12:19:36Z</time>
      </trkpt>
      <trkpt lat="42.89489" lon="1.46611">
        <ele>1122.1744384766</ele>
        <time>2021-01-24T12:19:44Z</time>
      </trkpt>
      <trkpt lat="42.89494" lon="1.46598">
        <ele>1121.3026123047</ele>
        <time>2021-01-24T12:19:53Z</time>
      </trkpt>
      <trkpt lat="42.89496" lon="1.46585">
        <ele>1119.318359375</ele>
        <time>2021-01-24T12:20:01Z</time>
      </trkpt>
      <trkpt lat="42.89499" lon="1.46573">
        <ele>1118.5794677734</ele>
        <time>2021-01-24T12:20:09Z</time>
      </trkpt>
      <trkpt lat="42.89504" lon="1.46561">
        <ele>1118.6644287109</ele>
        <time>2021-01-24T12:20:17Z</time>
      </trkpt>
      <trkpt lat="42.89509" lon="1.46549">
        <ele>1118.3524169922</ele>
        <time>2021-01-24T12:20:25Z</time>
      </trkpt>
      <trkpt lat="42.89515" lon="1.46538">
        <ele>1118.34765625</ele>
        <time>2021-01-24T12:20:33Z</time>
      </trkpt>
      <trkpt lat="42.89521" lon="1.46526">
        <ele>1117.75390625</ele>
        <time>2021-01-24T12:20:41Z</time>
      </trkpt>
      <trkpt lat="42.89526" lon="1.46514">
        <ele>1117.1993408203</ele>
        <time>2021-01-24T12:20:50Z</time>
      </trkpt>
      <trkpt lat="42.89532" lon="1.46504">
        <ele>1116.1024169922</ele>
        <time>2021-01-24T12:20:58Z</time>
      </trkpt>
      <trkpt lat="42.89538" lon="1.46492">
        <ele>1116.1512451172</ele>
        <time>2021-01-24T12:21:07Z</time>
      </trkpt>
      <trkpt lat="42.89545" lon="1.46484">
        <ele>1116.6677246094</ele>
        <time>2021-01-24T12:21:14Z</time>
      </trkpt>
      <trkpt lat="42.89552" lon="1.46475">
        <ele>1116.9986572266</ele>
        <time>2021-01-24T12:21:23Z</time>
      </trkpt>
      <trkpt lat="42.89558" lon="1.46465">
        <ele>1117.8607177734</ele>
        <time>2021-01-24T12:21:30Z</time>
      </trkpt>
      <trkpt lat="42.89563" lon="1.46454">
        <ele>1119.0817871094</ele>
        <time>2021-01-24T12:21:38Z</time>
      </trkpt>
      <trkpt lat="42.89567" lon="1.46441">
        <ele>1119.0164794922</ele>
        <time>2021-01-24T12:21:46Z</time>
      </trkpt>
      <trkpt lat="42.89571" lon="1.46428">
        <ele>1117.6323242188</ele>
        <time>2021-01-24T12:21:55Z</time>
      </trkpt>
      <trkpt lat="42.89577" lon="1.46416">
        <ele>1118.0186767578</ele>
        <time>2021-01-24T12:22:04Z</time>
      </trkpt>
      <trkpt lat="42.89584" lon="1.46407">
        <ele>1119.328125</ele>
        <time>2021-01-24T12:22:14Z</time>
      </trkpt>
      <trkpt lat="42.89592" lon="1.46399">
        <ele>1123.8319091797</ele>
        <time>2021-01-24T12:22:22Z</time>
      </trkpt>
      <trkpt lat="42.89602" lon="1.46397">
        <ele>1126.6179199219</ele>
        <time>2021-01-24T12:22:32Z</time>
      </trkpt>
      <trkpt lat="42.89607" lon="1.4641">
        <ele>1123.4831542969</ele>
        <time>2021-01-24T12:23:46Z</time>
      </trkpt>
      <trkpt lat="42.89605" lon="1.46423">
        <ele>1123.1857910156</ele>
        <time>2021-01-24T12:23:56Z</time>
      </trkpt>
      <trkpt lat="42.89603" lon="1.46436">
        <ele>1125.2789306641</ele>
        <time>2021-01-24T12:24:07Z</time>
      </trkpt>
      <trkpt lat="42.89599" lon="1.46448">
        <ele>1126.6480712891</ele>
        <time>2021-01-24T12:24:15Z</time>
      </trkpt>
      <trkpt lat="42.89596" lon="1.46463">
        <ele>1128.6350097656</ele>
        <time>2021-01-24T12:24:23Z</time>
      </trkpt>
      <trkpt lat="42.89597" lon="1.46475">
        <ele>1125.8072509766</ele>
        <time>2021-01-24T12:24:33Z</time>
      </trkpt>
      <trkpt lat="42.89596" lon="1.46488">
        <ele>1125.9011230469</ele>
        <time>2021-01-24T12:24:42Z</time>
      </trkpt>
      <trkpt lat="42.89597" lon="1.46501">
        <ele>1125.52734375</ele>
        <time>2021-01-24T12:24:50Z</time>
      </trkpt>
      <trkpt lat="42.89598" lon="1.46515">
        <ele>1126.4626464844</ele>
        <time>2021-01-24T12:25:00Z</time>
      </trkpt>
      <trkpt lat="42.89597" lon="1.46528">
        <ele>1129.8295898438</ele>
        <time>2021-01-24T12:25:08Z</time>
      </trkpt>
      <trkpt lat="42.89596" lon="1.46542">
        <ele>1134.8524169922</ele>
        <time>2021-01-24T12:25:14Z</time>
      </trkpt>
      <trkpt lat="42.89595" lon="1.46555">
        <ele>1138.5061035156</ele>
        <time>2021-01-24T12:25:19Z</time>
      </trkpt>
      <trkpt lat="42.89591" lon="1.46569">
        <ele>1138.208984375</ele>
        <time>2021-01-24T12:25:25Z</time>
      </trkpt>
      <trkpt lat="42.89591" lon="1.46582">
        <ele>1132.283203125</ele>
        <time>2021-01-24T12:25:42Z</time>
      </trkpt>
      <trkpt lat="42.8959" lon="1.46596">
        <ele>1133.1802978516</ele>
        <time>2021-01-24T12:25:52Z</time>
      </trkpt>
      <trkpt lat="42.89589" lon="1.46611">
        <ele>1131.0909423828</ele>
        <time>2021-01-24T12:26:01Z</time>
      </trkpt>
      <trkpt lat="42.89588" lon="1.46625">
        <ele>1132.4168701172</ele>
        <time>2021-01-24T12:26:13Z</time>
      </trkpt>
      <trkpt lat="42.89586" lon="1.46638">
        <ele>1130.9364013672</ele>
        <time>2021-01-24T12:26:23Z</time>
      </trkpt>
      <trkpt lat="42.89585" lon="1.46651">
        <ele>1130.0517578125</ele>
        <time>2021-01-24T12:26:33Z</time>
      </trkpt>
      <trkpt lat="42.89587" lon="1.46664">
        <ele>1129.0076904297</ele>
        <time>2021-01-24T12:26:44Z</time>
      </trkpt>
      <trkpt lat="42.89587" lon="1.46678">
        <ele>1129.3463134766</ele>
        <time>2021-01-24T12:26:53Z</time>
      </trkpt>
      <trkpt lat="42.8959" lon="1.46692">
        <ele>1130.2612304688</ele>
        <time>2021-01-24T12:27:03Z</time>
      </trkpt>
      <trkpt lat="42.896" lon="1.46694">
        <ele>1132.0450439453</ele>
        <time>2021-01-24T12:27:11Z</time>
      </trkpt>
      <trkpt lat="42.89609" lon="1.46695">
        <ele>1131.3500976562</ele>
        <time>2021-01-24T12:27:18Z</time>
      </trkpt>
      <trkpt lat="42.89609" lon="1.4671">
        <ele>1129.6396484375</ele>
        <time>2021-01-24T12:27:40Z</time>
      </trkpt>
      <trkpt lat="42.89597" lon="1.46703">
        <ele>1131.3118896484</ele>
        <time>2021-01-24T12:30:46Z</time>
      </trkpt>
      <trkpt lat="42.89603" lon="1.46717">
        <ele>1130.2711181641</ele>
        <time>2021-01-24T12:34:11Z</time>
      </trkpt>
      <trkpt lat="42.89607" lon="1.46733">
        <ele>1126.7192382812</ele>
        <time>2021-01-24T12:35:20Z</time>
      </trkpt>
      <trkpt lat="42.89616" lon="1.46731">
        <ele>1125.6810302734</ele>
        <time>2021-01-24T12:35:32Z</time>
      </trkpt>
      <trkpt lat="42.89611" lon="1.46714">
        <ele>1130.0826416016</ele>
        <time>2021-01-24T12:35:57Z</time>
      </trkpt>
    </trkseg>
  </trk>
</gpx>